sensor_id;sensor_type;location;lat;lon;timestamp;P1;durP1;ratioP1;P2;durP2;ratioP2
71042;SDS011;58696;52.134;5.500;2022-12-18T00:01:21;21.02;;;8.30;;
71042;SDS011;58696;52.134;5.500;2022-12-18T00:03:50;36.50;;;13.10;;
71042;SDS011;58696;52.134;5.500;2022-12-18T00:06:18;24.75;;;12.63;;
71042;SDS011;58696;52.134;5.500;2022-12-18T00:08:46;21.48;;;10.07;;
71042;SDS011;58696;52.134;5.500;2022-12-18T00:11:16;14.35;;;8.93;;
71042;SDS011;58696;52.134;5.500;2022-12-18T00:13:48;10.40;;;4.35;;
71042;SDS011;58696;52.134;5.500;2022-12-18T00:16:17;10.85;;;6.57;;
71042;SDS011;58696;52.134;5.500;2022-12-18T00:18:49;26.23;;;11.52;;
71042;SDS011;58696;52.134;5.500;2022-12-18T00:21:20;15.88;;;7.75;;
71042;SDS011;58696;52.134;5.500;2022-12-18T00:23:47;26.48;;;12.73;;
71042;SDS011;58696;52.134;5.500;2022-12-18T00:26:19;10.77;;;4.27;;
71042;SDS011;58696;52.134;5.500;2022-12-18T00:28:48;10.05;;;4.90;;
71042;SDS011;58696;52.134;5.500;2022-12-18T00:31:16;15.93;;;8.63;;
71042;SDS011;58696;52.134;5.500;2022-12-18T00:33:46;18.45;;;7.40;;
71042;SDS011;58696;52.134;5.500;2022-12-18T00:41:11;6.65;;;3.42;;
71042;SDS011;58696;52.134;5.500;2022-12-18T00:43:39;20.63;;;5.80;;
71042;SDS011;58696;52.134;5.500;2022-12-18T00:46:07;23.50;;;10.95;;
71042;SDS011;58696;52.134;5.500;2022-12-18T00:48:34;3.67;;;2.60;;
71042;SDS011;58696;52.134;5.500;2022-12-18T00:51:02;28.42;;;12.65;;
71042;SDS011;58696;52.134;5.500;2022-12-18T00:53:33;29.30;;;11.75;;
71042;SDS011;58696;52.134;5.500;2022-12-18T00:56:00;5.00;;;2.45;;
71042;SDS011;58696;52.134;5.500;2022-12-18T00:58:30;5.40;;;3.25;;
71042;SDS011;58696;52.134;5.500;2022-12-18T01:00:57;15.52;;;7.65;;
71042;SDS011;58696;52.134;5.500;2022-12-18T01:03:23;35.30;;;12.52;;
71042;SDS011;58696;52.134;5.500;2022-12-18T01:05:52;23.35;;;9.23;;
71042;SDS011;58696;52.134;5.500;2022-12-18T01:08:20;4.70;;;3.58;;
71042;SDS011;58696;52.134;5.500;2022-12-18T01:10:48;13.82;;;6.35;;
71042;SDS011;58696;52.134;5.500;2022-12-18T01:13:15;19.27;;;8.95;;
71042;SDS011;58696;52.134;5.500;2022-12-18T01:15:51;7.28;;;4.80;;
71042;SDS011;58696;52.134;5.500;2022-12-18T01:18:18;18.45;;;8.82;;
71042;SDS011;58696;52.134;5.500;2022-12-18T01:20:46;18.25;;;8.00;;
71042;SDS011;58696;52.134;5.500;2022-12-18T01:23:12;10.27;;;6.93;;
71042;SDS011;58696;52.134;5.500;2022-12-18T01:25:39;16.63;;;7.10;;
71042;SDS011;58696;52.134;5.500;2022-12-18T01:28:06;22.10;;;7.28;;
71042;SDS011;58696;52.134;5.500;2022-12-18T01:30:35;29.65;;;12.05;;
71042;SDS011;58696;52.134;5.500;2022-12-18T01:33:01;16.85;;;7.45;;
71042;SDS011;58696;52.134;5.500;2022-12-18T01:35:31;18.02;;;8.95;;
71042;SDS011;58696;52.134;5.500;2022-12-18T01:37:58;18.00;;;9.90;;
71042;SDS011;58696;52.134;5.500;2022-12-18T01:40:24;23.35;;;10.80;;
71042;SDS011;58696;52.134;5.500;2022-12-18T01:42:53;20.80;;;9.25;;
71042;SDS011;58696;52.134;5.500;2022-12-18T01:50:31;22.33;;;11.68;;
71042;SDS011;58696;52.134;5.500;2022-12-18T01:55:36;17.00;;;8.85;;
71042;SDS011;58696;52.134;5.500;2022-12-18T01:58:08;21.00;;;10.82;;
71042;SDS011;58696;52.134;5.500;2022-12-18T02:00:35;23.80;;;10.82;;
71042;SDS011;58696;52.134;5.500;2022-12-18T02:03:02;26.08;;;11.98;;
71042;SDS011;58696;52.134;5.500;2022-12-18T02:08:10;24.45;;;9.73;;
71042;SDS011;58696;52.134;5.500;2022-12-18T02:28:36;27.25;;;11.90;;
71042;SDS011;58696;52.134;5.500;2022-12-18T02:31:10;25.88;;;11.95;;
71042;SDS011;58696;52.134;5.500;2022-12-18T02:33:40;21.42;;;10.75;;
71042;SDS011;58696;52.134;5.500;2022-12-18T02:36:12;24.85;;;11.10;;
71042;SDS011;58696;52.134;5.500;2022-12-18T02:41:09;13.20;;;7.43;;
71042;SDS011;58696;52.134;5.500;2022-12-18T02:43:36;29.23;;;11.40;;
71042;SDS011;58696;52.134;5.500;2022-12-18T02:48:53;24.73;;;10.10;;
71042;SDS011;58696;52.134;5.500;2022-12-18T02:51:47;21.23;;;9.73;;
71042;SDS011;58696;52.134;5.500;2022-12-18T02:54:26;25.00;;;12.43;;
71042;SDS011;58696;52.134;5.500;2022-12-18T02:56:57;27.92;;;11.30;;
71042;SDS011;58696;52.134;5.500;2022-12-18T02:59:38;19.08;;;8.38;;
71042;SDS011;58696;52.134;5.500;2022-12-18T03:02:17;18.42;;;8.00;;
71042;SDS011;58696;52.134;5.500;2022-12-18T03:07:32;21.08;;;8.70;;
71042;SDS011;58696;52.134;5.500;2022-12-18T03:10:05;21.02;;;8.07;;
71042;SDS011;58696;52.134;5.500;2022-12-18T03:12:42;21.55;;;10.05;;
71042;SDS011;58696;52.134;5.500;2022-12-18T03:15:18;17.27;;;8.50;;
71042;SDS011;58696;52.134;5.500;2022-12-18T03:17:52;15.32;;;8.23;;
71042;SDS011;58696;52.134;5.500;2022-12-18T03:20:24;23.48;;;10.13;;
71042;SDS011;58696;52.134;5.500;2022-12-18T03:22:58;23.85;;;9.15;;
71042;SDS011;58696;52.134;5.500;2022-12-18T03:25:30;17.02;;;9.20;;
71042;SDS011;58696;52.134;5.500;2022-12-18T03:27:59;24.58;;;9.98;;
71042;SDS011;58696;52.134;5.500;2022-12-18T03:30:28;14.20;;;8.27;;
71042;SDS011;58696;52.134;5.500;2022-12-18T03:33:09;16.38;;;8.65;;
71042;SDS011;58696;52.134;5.500;2022-12-18T03:35:43;27.85;;;12.13;;
71042;SDS011;58696;52.134;5.500;2022-12-18T03:38:11;27.23;;;10.40;;
71042;SDS011;58696;52.134;5.500;2022-12-18T03:40:59;30.55;;;11.18;;
71042;SDS011;58696;52.134;5.500;2022-12-18T03:44:13;20.77;;;10.30;;
71042;SDS011;58696;52.134;5.500;2022-12-18T03:49:17;23.35;;;10.15;;
71042;SDS011;58696;52.134;5.500;2022-12-18T03:52:02;23.00;;;10.10;;
71042;SDS011;58696;52.134;5.500;2022-12-18T03:54:35;19.15;;;10.57;;
71042;SDS011;58696;52.134;5.500;2022-12-18T03:57:08;30.83;;;11.55;;
71042;SDS011;58696;52.134;5.500;2022-12-18T03:59:40;19.23;;;9.95;;
71042;SDS011;58696;52.134;5.500;2022-12-18T04:02:09;25.45;;;11.35;;
71042;SDS011;58696;52.134;5.500;2022-12-18T04:04:40;20.58;;;10.40;;
71042;SDS011;58696;52.134;5.500;2022-12-18T04:07:09;19.88;;;10.27;;
71042;SDS011;58696;52.134;5.500;2022-12-18T04:09:36;19.52;;;10.15;;
71042;SDS011;58696;52.134;5.500;2022-12-18T04:12:07;20.30;;;9.65;;
71042;SDS011;58696;52.134;5.500;2022-12-18T04:14:34;21.23;;;10.35;;
71042;SDS011;58696;52.134;5.500;2022-12-18T04:17:02;18.17;;;10.25;;
71042;SDS011;58696;52.134;5.500;2022-12-18T04:19:31;24.23;;;10.07;;
71042;SDS011;58696;52.134;5.500;2022-12-18T04:21:58;26.08;;;11.48;;
71042;SDS011;58696;52.134;5.500;2022-12-18T04:24:27;15.50;;;8.82;;
71042;SDS011;58696;52.134;5.500;2022-12-18T04:26:57;22.05;;;10.60;;
71042;SDS011;58696;52.134;5.500;2022-12-18T04:29:26;26.02;;;11.55;;
71042;SDS011;58696;52.134;5.500;2022-12-18T04:31:56;24.20;;;10.65;;
71042;SDS011;58696;52.134;5.500;2022-12-18T04:34:23;14.93;;;8.40;;
71042;SDS011;58696;52.134;5.500;2022-12-18T04:36:49;18.73;;;10.45;;
71042;SDS011;58696;52.134;5.500;2022-12-18T04:39:17;18.33;;;8.82;;
71042;SDS011;58696;52.134;5.500;2022-12-18T04:41:44;19.05;;;8.20;;
71042;SDS011;58696;52.134;5.500;2022-12-18T04:44:13;12.70;;;7.07;;
71042;SDS011;58696;52.134;5.500;2022-12-18T04:46:40;14.45;;;8.77;;
71042;SDS011;58696;52.134;5.500;2022-12-18T04:49:07;15.50;;;7.72;;
71042;SDS011;58696;52.134;5.500;2022-12-18T04:51:34;12.93;;;6.78;;
71042;SDS011;58696;52.134;5.500;2022-12-18T04:54:00;20.52;;;8.18;;
71042;SDS011;58696;52.134;5.500;2022-12-18T04:56:27;13.63;;;7.20;;
71042;SDS011;58696;52.134;5.500;2022-12-18T04:58:54;12.60;;;7.45;;
71042;SDS011;58696;52.134;5.500;2022-12-18T05:01:24;16.88;;;7.88;;
71042;SDS011;58696;52.134;5.500;2022-12-18T05:03:59;12.48;;;7.10;;
71042;SDS011;58696;52.134;5.500;2022-12-18T05:06:27;18.20;;;7.30;;
71042;SDS011;58696;52.134;5.500;2022-12-18T05:08:56;16.92;;;7.28;;
71042;SDS011;58696;52.134;5.500;2022-12-18T05:11:23;10.90;;;6.82;;
71042;SDS011;58696;52.134;5.500;2022-12-18T05:13:51;19.20;;;8.63;;
71042;SDS011;58696;52.134;5.500;2022-12-18T05:16:21;11.73;;;6.35;;
71042;SDS011;58696;52.134;5.500;2022-12-18T05:18:51;16.98;;;8.73;;
71042;SDS011;58696;52.134;5.500;2022-12-18T05:21:18;18.23;;;8.00;;
71042;SDS011;58696;52.134;5.500;2022-12-18T05:23:48;20.30;;;8.93;;
71042;SDS011;58696;52.134;5.500;2022-12-18T05:26:18;16.27;;;7.82;;
71042;SDS011;58696;52.134;5.500;2022-12-18T05:28:46;19.23;;;8.70;;
71042;SDS011;58696;52.134;5.500;2022-12-18T05:31:13;13.70;;;7.32;;
71042;SDS011;58696;52.134;5.500;2022-12-18T05:33:42;17.30;;;8.52;;
71042;SDS011;58696;52.134;5.500;2022-12-18T05:36:11;12.60;;;7.22;;
71042;SDS011;58696;52.134;5.500;2022-12-18T05:38:39;13.45;;;7.78;;
71042;SDS011;58696;52.134;5.500;2022-12-18T05:41:07;18.02;;;7.63;;
71042;SDS011;58696;52.134;5.500;2022-12-18T05:43:38;13.05;;;7.05;;
71042;SDS011;58696;52.134;5.500;2022-12-18T05:46:07;17.20;;;8.20;;
71042;SDS011;58696;52.134;5.500;2022-12-18T05:48:38;15.18;;;8.43;;
71042;SDS011;58696;52.134;5.500;2022-12-18T05:51:10;14.93;;;7.60;;
71042;SDS011;58696;52.134;5.500;2022-12-18T05:53:38;19.95;;;7.47;;
71042;SDS011;58696;52.134;5.500;2022-12-18T05:56:09;13.43;;;7.05;;
71042;SDS011;58696;52.134;5.500;2022-12-18T05:58:39;19.80;;;6.93;;
71042;SDS011;58696;52.134;5.500;2022-12-18T06:01:11;38.35;;;7.80;;
71042;SDS011;58696;52.134;5.500;2022-12-18T06:03:40;10.73;;;6.35;;
71042;SDS011;58696;52.134;5.500;2022-12-18T06:06:24;19.90;;;8.02;;
71042;SDS011;58696;52.134;5.500;2022-12-18T06:08:53;11.90;;;7.05;;
71042;SDS011;58696;52.134;5.500;2022-12-18T06:11:21;15.82;;;7.60;;
71042;SDS011;58696;52.134;5.500;2022-12-18T06:13:53;15.88;;;7.18;;
71042;SDS011;58696;52.134;5.500;2022-12-18T06:16:24;15.32;;;7.20;;
71042;SDS011;58696;52.134;5.500;2022-12-18T06:18:52;13.97;;;7.77;;
71042;SDS011;58696;52.134;5.500;2022-12-18T06:21:19;13.18;;;8.10;;
71042;SDS011;58696;52.134;5.500;2022-12-18T06:23:47;18.83;;;8.50;;
71042;SDS011;58696;52.134;5.500;2022-12-18T06:26:14;21.25;;;7.47;;
71042;SDS011;58696;52.134;5.500;2022-12-18T06:28:42;14.48;;;7.70;;
71042;SDS011;58696;52.134;5.500;2022-12-18T06:31:09;19.33;;;8.00;;
71042;SDS011;58696;52.134;5.500;2022-12-18T06:33:39;24.23;;;10.35;;
71042;SDS011;58696;52.134;5.500;2022-12-18T06:38:35;14.32;;;7.38;;
71042;SDS011;58696;52.134;5.500;2022-12-18T06:41:11;15.45;;;7.97;;
71042;SDS011;58696;52.134;5.500;2022-12-18T06:43:40;13.25;;;7.07;;
71042;SDS011;58696;52.134;5.500;2022-12-18T06:46:08;15.93;;;7.25;;
71042;SDS011;58696;52.134;5.500;2022-12-18T06:48:36;13.02;;;6.50;;
71042;SDS011;58696;52.134;5.500;2022-12-18T06:51:03;6.35;;;3.88;;
71042;SDS011;58696;52.134;5.500;2022-12-18T06:53:32;14.30;;;7.00;;
71042;SDS011;58696;52.134;5.500;2022-12-18T06:56:00;13.82;;;6.80;;
71042;SDS011;58696;52.134;5.500;2022-12-18T06:58:34;13.07;;;6.40;;
71042;SDS011;58696;52.134;5.500;2022-12-18T07:01:03;12.60;;;6.57;;
71042;SDS011;58696;52.134;5.500;2022-12-18T07:08:25;6.30;;;3.88;;
71042;SDS011;58696;52.134;5.500;2022-12-18T07:10:54;7.40;;;4.82;;
71042;SDS011;58696;52.134;5.500;2022-12-18T07:13:21;11.13;;;5.72;;
71042;SDS011;58696;52.134;5.500;2022-12-18T07:15:48;8.43;;;5.07;;
71042;SDS011;58696;52.134;5.500;2022-12-18T07:18:15;8.25;;;4.88;;
71042;SDS011;58696;52.134;5.500;2022-12-18T07:20:42;9.15;;;5.90;;
71042;SDS011;58696;52.134;5.500;2022-12-18T07:23:09;11.68;;;5.65;;
71042;SDS011;58696;52.134;5.500;2022-12-18T07:25:36;11.32;;;6.25;;
71042;SDS011;58696;52.134;5.500;2022-12-18T07:28:03;17.02;;;5.80;;
71042;SDS011;58696;52.134;5.500;2022-12-18T07:30:30;15.27;;;6.87;;
71042;SDS011;58696;52.134;5.500;2022-12-18T07:32:57;9.90;;;5.40;;
71042;SDS011;58696;52.134;5.500;2022-12-18T07:35:24;12.77;;;5.63;;
71042;SDS011;58696;52.134;5.500;2022-12-18T07:37:52;9.57;;;6.20;;
71042;SDS011;58696;52.134;5.500;2022-12-18T07:40:19;7.90;;;5.10;;
71042;SDS011;58696;52.134;5.500;2022-12-18T07:42:46;8.82;;;5.07;;
71042;SDS011;58696;52.134;5.500;2022-12-18T07:45:13;14.23;;;5.85;;
71042;SDS011;58696;52.134;5.500;2022-12-18T07:47:44;12.50;;;5.88;;
71042;SDS011;58696;52.134;5.500;2022-12-18T07:50:12;10.82;;;5.38;;
71042;SDS011;58696;52.134;5.500;2022-12-18T07:52:39;11.45;;;5.80;;
71042;SDS011;58696;52.134;5.500;2022-12-18T07:55:06;8.75;;;6.05;;
71042;SDS011;58696;52.134;5.500;2022-12-18T07:57:34;12.90;;;6.38;;
71042;SDS011;58696;52.134;5.500;2022-12-18T08:00:16;8.82;;;5.90;;
71042;SDS011;58696;52.134;5.500;2022-12-18T08:02:43;9.77;;;6.22;;
71042;SDS011;58696;52.134;5.500;2022-12-18T08:05:13;7.95;;;4.47;;
71042;SDS011;58696;52.134;5.500;2022-12-18T08:07:43;19.23;;;4.25;;
71042;SDS011;58696;52.134;5.500;2022-12-18T08:10:09;7.47;;;3.65;;
71042;SDS011;58696;52.134;5.500;2022-12-18T08:12:41;7.43;;;4.57;;
71042;SDS011;58696;52.134;5.500;2022-12-18T08:15:08;11.05;;;4.53;;
71042;SDS011;58696;52.134;5.500;2022-12-18T08:17:38;11.88;;;4.63;;
71042;SDS011;58696;52.134;5.500;2022-12-18T08:20:05;9.13;;;4.47;;
71042;SDS011;58696;52.134;5.500;2022-12-18T08:22:38;10.50;;;5.93;;
71042;SDS011;58696;52.134;5.500;2022-12-18T08:25:05;5.15;;;3.65;;
71042;SDS011;58696;52.134;5.500;2022-12-18T08:27:33;9.10;;;4.40;;
71042;SDS011;58696;52.134;5.500;2022-12-18T08:30:00;13.73;;;5.90;;
71042;SDS011;58696;52.134;5.500;2022-12-18T08:32:30;6.30;;;3.38;;
71042;SDS011;58696;52.134;5.500;2022-12-18T08:37:27;1.33;;;1.23;;
71042;SDS011;58696;52.134;5.500;2022-12-18T08:39:54;4.78;;;2.80;;
71042;SDS011;58696;52.134;5.500;2022-12-18T08:42:21;0.98;;;0.95;;
71042;SDS011;58696;52.134;5.500;2022-12-18T08:45:06;10.82;;;4.50;;
71042;SDS011;58696;52.134;5.500;2022-12-18T08:47:34;9.85;;;6.10;;
71042;SDS011;58696;52.134;5.500;2022-12-18T08:50:00;6.60;;;4.55;;
71042;SDS011;58696;52.134;5.500;2022-12-18T08:52:27;7.90;;;5.32;;
71042;SDS011;58696;52.134;5.500;2022-12-18T08:54:54;8.70;;;5.25;;
71042;SDS011;58696;52.134;5.500;2022-12-18T08:57:21;6.53;;;4.85;;
71042;SDS011;58696;52.134;5.500;2022-12-18T08:59:48;15.95;;;6.78;;
71042;SDS011;58696;52.134;5.500;2022-12-18T09:02:15;6.50;;;4.13;;
71042;SDS011;58696;52.134;5.500;2022-12-18T09:04:46;13.55;;;7.22;;
71042;SDS011;58696;52.134;5.500;2022-12-18T09:07:22;10.35;;;6.38;;
71042;SDS011;58696;52.134;5.500;2022-12-18T09:09:49;10.02;;;5.57;;
71042;SDS011;58696;52.134;5.500;2022-12-18T09:12:20;7.50;;;5.78;;
71042;SDS011;58696;52.134;5.500;2022-12-18T09:14:51;9.70;;;6.53;;
71042;SDS011;58696;52.134;5.500;2022-12-18T09:17:18;9.57;;;5.95;;
71042;SDS011;58696;52.134;5.500;2022-12-18T09:19:45;9.23;;;6.35;;
71042;SDS011;58696;52.134;5.500;2022-12-18T09:22:11;5.47;;;3.95;;
71042;SDS011;58696;52.134;5.500;2022-12-18T09:24:39;9.60;;;5.38;;
71042;SDS011;58696;52.134;5.500;2022-12-18T09:27:05;5.60;;;4.45;;
71042;SDS011;58696;52.134;5.500;2022-12-18T09:29:33;8.43;;;4.72;;
71042;SDS011;58696;52.134;5.500;2022-12-18T09:32:02;6.75;;;4.00;;
71042;SDS011;58696;52.134;5.500;2022-12-18T09:34:29;10.65;;;5.82;;
71042;SDS011;58696;52.134;5.500;2022-12-18T09:36:56;12.05;;;5.90;;
71042;SDS011;58696;52.134;5.500;2022-12-18T09:39:23;5.68;;;3.03;;
71042;SDS011;58696;52.134;5.500;2022-12-18T09:41:56;9.27;;;5.90;;
71042;SDS011;58696;52.134;5.500;2022-12-18T09:44:39;8.45;;;4.88;;
71042;SDS011;58696;52.134;5.500;2022-12-18T09:47:30;10.10;;;5.32;;
71042;SDS011;58696;52.134;5.500;2022-12-18T09:50:05;8.85;;;3.90;;
71042;SDS011;58696;52.134;5.500;2022-12-18T09:52:48;7.10;;;4.85;;
71042;SDS011;58696;52.134;5.500;2022-12-18T09:55:33;8.30;;;4.35;;
71042;SDS011;58696;52.134;5.500;2022-12-18T10:00:42;10.50;;;4.68;;
71042;SDS011;58696;52.134;5.500;2022-12-18T10:03:14;9.98;;;5.82;;
71042;SDS011;58696;52.134;5.500;2022-12-18T10:14:29;3.20;;;2.78;;
71042;SDS011;58696;52.134;5.500;2022-12-18T10:17:07;9.60;;;5.60;;
71042;SDS011;58696;52.134;5.500;2022-12-18T10:19:40;2.42;;;1.15;;
71042;SDS011;58696;52.134;5.500;2022-12-18T10:22:26;7.93;;;4.57;;
71042;SDS011;58696;52.134;5.500;2022-12-18T10:25:40;4.90;;;3.70;;
71042;SDS011;58696;52.134;5.500;2022-12-18T10:28:29;7.78;;;4.70;;
71042;SDS011;58696;52.134;5.500;2022-12-18T10:30:57;5.90;;;2.25;;
71042;SDS011;58696;52.134;5.500;2022-12-18T10:33:27;4.32;;;2.70;;
71042;SDS011;58696;52.134;5.500;2022-12-18T10:35:59;7.78;;;5.43;;
71042;SDS011;58696;52.134;5.500;2022-12-18T10:38:27;8.02;;;4.53;;
71042;SDS011;58696;52.134;5.500;2022-12-18T10:51:06;8.10;;;5.25;;
71042;SDS011;58696;52.134;5.500;2022-12-18T10:53:38;11.35;;;4.63;;
71042;SDS011;58696;52.134;5.500;2022-12-18T10:56:08;7.32;;;4.72;;
71042;SDS011;58696;52.134;5.500;2022-12-18T10:58:36;8.38;;;5.63;;
71042;SDS011;58696;52.134;5.500;2022-12-18T11:03:38;7.75;;;4.18;;
71042;SDS011;58696;52.134;5.500;2022-12-18T11:08:38;6.28;;;4.30;;
71042;SDS011;58696;52.134;5.500;2022-12-18T11:11:29;8.63;;;4.32;;
71042;SDS011;58696;52.134;5.500;2022-12-18T11:14:06;7.30;;;4.22;;
71042;SDS011;58696;52.134;5.500;2022-12-18T11:16:43;4.82;;;3.50;;
71042;SDS011;58696;52.134;5.500;2022-12-18T11:19:38;6.57;;;3.90;;
71042;SDS011;58696;52.134;5.500;2022-12-18T11:25:17;11.70;;;4.10;;
71042;SDS011;58696;52.134;5.500;2022-12-18T11:28:01;5.45;;;3.47;;
71042;SDS011;58696;52.134;5.500;2022-12-18T11:30:32;7.32;;;4.60;;
71042;SDS011;58696;52.134;5.500;2022-12-18T11:33:10;6.10;;;4.70;;
71042;SDS011;58696;52.134;5.500;2022-12-18T11:35:49;9.63;;;5.22;;
71042;SDS011;58696;52.134;5.500;2022-12-18T11:38:20;6.88;;;4.13;;
71042;SDS011;58696;52.134;5.500;2022-12-18T11:43:39;5.53;;;3.13;;
71042;SDS011;58696;52.134;5.500;2022-12-18T11:46:23;5.43;;;3.05;;
71042;SDS011;58696;52.134;5.500;2022-12-18T11:51:55;8.38;;;5.05;;
71042;SDS011;58696;52.134;5.500;2022-12-18T11:54:29;5.93;;;3.85;;
71042;SDS011;58696;52.134;5.500;2022-12-18T11:59:44;6.15;;;3.38;;
71042;SDS011;58696;52.134;5.500;2022-12-18T12:02:36;5.22;;;3.25;;
71042;SDS011;58696;52.134;5.500;2022-12-18T12:10:51;10.25;;;4.75;;
71042;SDS011;58696;52.134;5.500;2022-12-18T12:16:11;8.48;;;3.95;;
71042;SDS011;58696;52.134;5.500;2022-12-18T12:21:28;7.65;;;3.85;;
71042;SDS011;58696;52.134;5.500;2022-12-18T12:26:33;8.15;;;5.25;;
71042;SDS011;58696;52.134;5.500;2022-12-18T12:40:00;6.45;;;4.03;;
71042;SDS011;58696;52.134;5.500;2022-12-18T12:42:52;10.43;;;5.43;;
71042;SDS011;58696;52.134;5.500;2022-12-18T12:51:28;7.68;;;3.90;;
71042;SDS011;58696;52.134;5.500;2022-12-18T12:53:58;8.98;;;4.97;;
71042;SDS011;58696;52.134;5.500;2022-12-18T12:56:38;7.20;;;5.00;;
71042;SDS011;58696;52.134;5.500;2022-12-18T12:59:19;8.98;;;4.85;;
71042;SDS011;58696;52.134;5.500;2022-12-18T13:02:03;10.45;;;5.35;;
71042;SDS011;58696;52.134;5.500;2022-12-18T13:07:53;8.45;;;4.35;;
71042;SDS011;58696;52.134;5.500;2022-12-18T13:10:34;5.70;;;4.03;;
71042;SDS011;58696;52.134;5.500;2022-12-18T13:13:12;7.28;;;3.83;;
71042;SDS011;58696;52.134;5.500;2022-12-18T13:15:50;9.27;;;4.38;;
71042;SDS011;58696;52.134;5.500;2022-12-18T13:18:34;8.90;;;5.13;;
71042;SDS011;58696;52.134;5.500;2022-12-18T13:21:04;9.67;;;5.57;;
71042;SDS011;58696;52.134;5.500;2022-12-18T13:23:43;7.90;;;5.65;;
71042;SDS011;58696;52.134;5.500;2022-12-18T13:28:54;10.35;;;4.28;;
71042;SDS011;58696;52.134;5.500;2022-12-18T13:34:16;11.63;;;5.75;;
71042;SDS011;58696;52.134;5.500;2022-12-18T13:36:54;9.30;;;6.07;;
71042;SDS011;58696;52.134;5.500;2022-12-18T13:39:24;9.52;;;5.80;;
71042;SDS011;58696;52.134;5.500;2022-12-18T13:44:31;9.48;;;6.70;;
71042;SDS011;58696;52.134;5.500;2022-12-18T13:50:09;10.18;;;5.85;;
71042;SDS011;58696;52.134;5.500;2022-12-18T13:53:01;10.43;;;5.50;;
71042;SDS011;58696;52.134;5.500;2022-12-18T13:55:31;12.18;;;5.75;;
71042;SDS011;58696;52.134;5.500;2022-12-18T13:58:03;9.60;;;4.65;;
71042;SDS011;58696;52.134;5.500;2022-12-18T14:00:34;10.77;;;5.57;;
71042;SDS011;58696;52.134;5.500;2022-12-18T14:03:15;8.27;;;5.07;;
71042;SDS011;58696;52.134;5.500;2022-12-18T14:05:52;9.18;;;5.38;;
71042;SDS011;58696;52.134;5.500;2022-12-18T14:08:25;7.07;;;4.38;;
71042;SDS011;58696;52.134;5.500;2022-12-18T14:10:58;9.73;;;5.90;;
71042;SDS011;58696;52.134;5.500;2022-12-18T14:13:29;14.23;;;6.38;;
71042;SDS011;58696;52.134;5.500;2022-12-18T14:15:58;12.10;;;5.70;;
71042;SDS011;58696;52.134;5.500;2022-12-18T14:18:32;8.88;;;5.72;;
71042;SDS011;58696;52.134;5.500;2022-12-18T14:21:04;10.48;;;5.43;;
71042;SDS011;58696;52.134;5.500;2022-12-18T14:26:02;11.50;;;6.47;;
71042;SDS011;58696;52.134;5.500;2022-12-18T14:28:48;9.55;;;5.45;;
71042;SDS011;58696;52.134;5.500;2022-12-18T14:31:19;10.00;;;5.82;;
71042;SDS011;58696;52.134;5.500;2022-12-18T14:33:50;6.55;;;4.00;;
71042;SDS011;58696;52.134;5.500;2022-12-18T14:36:20;7.60;;;4.65;;
71042;SDS011;58696;52.134;5.500;2022-12-18T14:38:57;6.78;;;3.53;;
71042;SDS011;58696;52.134;5.500;2022-12-18T14:41:25;8.57;;;5.13;;
71042;SDS011;58696;52.134;5.500;2022-12-18T14:43:55;9.18;;;6.00;;
71042;SDS011;58696;52.134;5.500;2022-12-18T14:46:36;8.63;;;5.32;;
71042;SDS011;58696;52.134;5.500;2022-12-18T14:49:18;7.75;;;5.13;;
71042;SDS011;58696;52.134;5.500;2022-12-18T14:51:50;13.10;;;5.65;;
71042;SDS011;58696;52.134;5.500;2022-12-18T14:54:22;10.73;;;6.20;;
71042;SDS011;58696;52.134;5.500;2022-12-18T14:57:04;7.75;;;5.72;;
71042;SDS011;58696;52.134;5.500;2022-12-18T15:00:03;10.30;;;5.72;;
71042;SDS011;58696;52.134;5.500;2022-12-18T15:02:32;9.10;;;4.05;;
71042;SDS011;58696;52.134;5.500;2022-12-18T15:07:53;4.82;;;2.40;;
71042;SDS011;58696;52.134;5.500;2022-12-18T15:18:13;7.88;;;4.47;;
71042;SDS011;58696;52.134;5.500;2022-12-18T15:20:50;5.45;;;3.45;;
71042;SDS011;58696;52.134;5.500;2022-12-18T15:25:49;8.85;;;5.20;;
71042;SDS011;58696;52.134;5.500;2022-12-18T15:28:32;8.07;;;5.45;;
71042;SDS011;58696;52.134;5.500;2022-12-18T15:33:37;11.23;;;6.00;;
71042;SDS011;58696;52.134;5.500;2022-12-18T15:36:13;9.73;;;5.03;;
71042;SDS011;58696;52.134;5.500;2022-12-18T15:38:46;1.45;;;1.15;;
71042;SDS011;58696;52.134;5.500;2022-12-18T15:41:18;6.72;;;4.47;;
71042;SDS011;58696;52.134;5.500;2022-12-18T15:43:50;15.63;;;5.43;;
71042;SDS011;58696;52.134;5.500;2022-12-18T15:48:55;8.05;;;4.63;;
71042;SDS011;58696;52.134;5.500;2022-12-18T15:51:28;8.02;;;4.88;;
71042;SDS011;58696;52.134;5.500;2022-12-18T15:53:59;11.57;;;6.35;;
71042;SDS011;58696;52.134;5.500;2022-12-18T15:56:30;9.40;;;5.75;;
71042;SDS011;58696;52.134;5.500;2022-12-18T15:59:18;8.90;;;4.97;;
71042;SDS011;58696;52.134;5.500;2022-12-18T16:01:47;6.38;;;3.13;;
71042;SDS011;58696;52.134;5.500;2022-12-18T16:04:19;12.13;;;5.05;;
71042;SDS011;58696;52.134;5.500;2022-12-18T16:06:48;3.78;;;2.67;;
71042;SDS011;58696;52.134;5.500;2022-12-18T16:09:35;7.32;;;4.78;;
71042;SDS011;58696;52.134;5.500;2022-12-18T16:12:08;10.05;;;3.88;;
71042;SDS011;58696;52.134;5.500;2022-12-18T16:14:43;6.53;;;4.13;;
71042;SDS011;58696;52.134;5.500;2022-12-18T16:17:12;6.57;;;4.90;;
71042;SDS011;58696;52.134;5.500;2022-12-18T16:19:41;12.48;;;4.97;;
71042;SDS011;58696;52.134;5.500;2022-12-18T16:22:16;9.05;;;4.82;;
71042;SDS011;58696;52.134;5.500;2022-12-18T16:24:56;10.95;;;6.88;;
71042;SDS011;58696;52.134;5.500;2022-12-18T16:27:23;3.85;;;3.08;;
71042;SDS011;58696;52.134;5.500;2022-12-18T16:29:53;12.82;;;3.80;;
71042;SDS011;58696;52.134;5.500;2022-12-18T16:32:20;15.40;;;7.35;;
71042;SDS011;58696;52.134;5.500;2022-12-18T16:34:48;9.02;;;5.53;;
71042;SDS011;58696;52.134;5.500;2022-12-18T16:37:15;6.00;;;3.92;;
71042;SDS011;58696;52.134;5.500;2022-12-18T16:39:42;8.23;;;5.32;;
71042;SDS011;58696;52.134;5.500;2022-12-18T16:42:11;8.02;;;5.18;;
71042;SDS011;58696;52.134;5.500;2022-12-18T16:44:40;5.78;;;3.88;;
71042;SDS011;58696;52.134;5.500;2022-12-18T16:47:07;8.52;;;4.07;;
71042;SDS011;58696;52.134;5.500;2022-12-18T16:49:37;13.60;;;6.38;;
71042;SDS011;58696;52.134;5.500;2022-12-18T16:52:07;8.95;;;4.90;;
71042;SDS011;58696;52.134;5.500;2022-12-18T16:54:36;12.05;;;6.63;;
71042;SDS011;58696;52.134;5.500;2022-12-18T16:57:04;4.78;;;3.25;;
71042;SDS011;58696;52.134;5.500;2022-12-18T16:59:34;3.75;;;3.13;;
71042;SDS011;58696;52.134;5.500;2022-12-18T17:02:01;6.68;;;4.05;;
71042;SDS011;58696;52.134;5.500;2022-12-18T17:04:28;10.07;;;5.90;;
71042;SDS011;58696;52.134;5.500;2022-12-18T17:06:54;12.52;;;6.78;;
71042;SDS011;58696;52.134;5.500;2022-12-18T17:09:21;10.50;;;5.82;;
71042;SDS011;58696;52.134;5.500;2022-12-18T17:11:51;6.15;;;3.22;;
71042;SDS011;58696;52.134;5.500;2022-12-18T17:14:21;5.88;;;3.90;;
71042;SDS011;58696;52.134;5.500;2022-12-18T17:16:49;11.50;;;7.13;;
71042;SDS011;58696;52.134;5.500;2022-12-18T17:19:36;11.00;;;6.78;;
71042;SDS011;58696;52.134;5.500;2022-12-18T17:22:03;9.60;;;5.47;;
71042;SDS011;58696;52.134;5.500;2022-12-18T17:24:30;4.68;;;3.72;;
71042;SDS011;58696;52.134;5.500;2022-12-18T17:27:01;3.17;;;2.75;;
71042;SDS011;58696;52.134;5.500;2022-12-18T17:29:30;9.00;;;5.88;;
71042;SDS011;58696;52.134;5.500;2022-12-18T17:31:57;9.60;;;4.80;;
71042;SDS011;58696;52.134;5.500;2022-12-18T17:34:25;15.63;;;8.45;;
71042;SDS011;58696;52.134;5.500;2022-12-18T17:36:53;6.85;;;4.68;;
71042;SDS011;58696;52.134;5.500;2022-12-18T17:39:19;9.00;;;5.75;;
71042;SDS011;58696;52.134;5.500;2022-12-18T17:41:47;14.48;;;6.03;;